Time;durP1;ratioP1;P1;durP2;ratioP2;P2;SDS_P1;SDS_P2;PMS_P1;PMS_P2;Temp;Humidity;BMP_temperature;BMP_pressure;BME280_temperature;BME280_humidity;BME280_pressure;Samples;Min_cycle;Max_cycle;Signal;HPM_P1;HPM_P2
2024/01/26 05:01:12;;;;;;;1.10;1.00;;;4.20;97.30;;;;;;5772596;23;20464;-69
2024/01/26 05:03:37;;;;;;;1.07;0.97;;;4.20;97.30;;;;;;5013377;28;20517;-69
2024/01/26 05:06:04;;;;;;;1.77;1.23;;;4.30;97.30;;;;;;5017137;28;20575;-69
2024/01/26 05:08:30;;;;;;;4.93;1.00;;;4.30;97.30;;;;;;5015443;28;20604;-69
2024/01/26 05:10:56;;;;;;;1.60;1.40;;;4.40;97.30;;;;;;5014693;28;20455;-69
2024/01/26 05:13:21;;;;;;;7.03;1.63;;;4.40;97.30;;;;;;5009853;28;20193;-69
2024/01/26 05:15:47;;;;;;;5.23;1.57;;;4.40;97.30;;;;;;4997929;28;20537;-68
2024/01/26 05:18:12;;;;;;;1.10;1.00;;;4.40;97.30;;;;;;5008690;28;20709;-69
2024/01/26 05:20:38;;;;;;;0.87;0.77;;;4.40;97.30;;;;;;5009675;28;20243;-69
2024/01/26 05:23:04;;;;;;;1.23;1.13;;;4.50;97.30;;;;;;5015247;28;20247;-68
2024/01/26 05:25:30;;;;;;;1.20;1.10;;;4.50;97.30;;;;;;5014941;28;20189;-70
2024/01/26 05:27:55;;;;;;;1.57;1.47;;;4.60;97.30;;;;;;5011924;28;20439;-70
2024/01/26 05:30:21;;;;;;;6.63;4.73;;;4.60;97.30;;;;;;5010251;28;20664;-71
2024/01/26 05:32:46;;;;;;;6.10;4.97;;;4.70;97.30;;;;;;5009112;28;20194;-69
2024/01/26 05:35:12;;;;;;;2.80;1.53;;;4.80;97.30;;;;;;5015945;28;20268;-71
2024/01/26 05:37:38;;;;;;;1.67;1.57;;;4.80;97.30;;;;;;5007994;28;20208;-71
2024/01/26 05:40:08;;;;;;;1.77;1.10;;;4.90;97.30;;;;;;5001681;28;20185;-71
2024/01/26 05:42:33;;;;;;;2.60;2.03;;;4.90;97.30;;;;;;4985770;28;20280;-71
2024/01/26 05:45:01;;;;;;;2.70;2.50;;;4.90;97.30;;;;;;5006713;28;20508;-70
2024/01/26 05:47:27;;;;;;;2.97;2.77;;;4.90;97.30;;;;;;5004843;28;20185;-71
2024/01/26 05:49:52;;;;;;;2.70;2.50;;;4.90;97.30;;;;;;5007859;28;20532;-71
2024/01/26 05:52:18;;;;;;;1.77;1.67;;;4.90;97.30;;;;;;5011178;28;20240;-71
2024/01/26 05:54:43;;;;;;;2.97;2.77;;;4.90;97.30;;;;;;5002445;28;20191;-72
2024/01/26 05:57:09;;;;;;;7.43;2.17;;;4.90;97.30;;;;;;5009742;28;20185;-72
2024/01/26 05:59:37;;;;;;;2.60;1.73;;;4.90;97.30;;;;;;5016370;28;20562;-71
2024/01/26 06:02:04;;;;;;;2.23;1.90;;;4.90;97.30;;;;;;5005460;28;20675;-71
2024/01/26 06:04:31;;;;;;;1.37;1.10;;;5.00;97.30;;;;;;5003852;28;20417;-71
2024/01/26 06:06:57;;;;;;;5.70;3.43;;;5.00;97.30;;;;;;5006097;28;20850;-71
2024/01/26 06:09:23;;;;;;;2.10;1.37;;;5.00;97.30;;;;;;5005884;28;20467;-72
2024/01/26 06:11:48;;;;;;;1.77;1.67;;;5.10;97.30;;;;;;5000934;28;20451;-70
2024/01/26 06:14:14;;;;;;;1.80;1.57;;;5.10;97.30;;;;;;4999671;28;20339;-71
2024/01/26 06:16:39;;;;;;;1.10;1.00;;;5.20;97.30;;;;;;5004206;28;20688;-71
2024/01/26 06:19:05;;;;;;;2.50;2.30;;;5.20;97.30;;;;;;4997120;28;20668;-72
2024/01/26 06:21:30;;;;;;;7.90;3.77;;;5.30;97.30;;;;;;5007126;28;20288;-72
2024/01/26 06:23:56;;;;;;;2.90;2.70;;;5.30;97.30;;;;;;5006421;28;20185;-71
2024/01/26 06:26:23;;;;;;;1.30;1.20;;;5.30;97.30;;;;;;5006698;28;20188;-72
2024/01/26 06:28:49;;;;;;;1.07;0.97;;;5.40;97.30;;;;;;5004925;28;20262;-72
2024/01/26 06:31:14;;;;;;;1.40;1.23;;;5.40;97.30;;;;;;5005130;28;20443;-72
2024/01/26 06:33:40;;;;;;;3.00;2.80;;;5.40;97.30;;;;;;5010662;28;20188;-73
2024/01/26 06:36:05;;;;;;;12.93;1.87;;;5.40;97.30;;;;;;5002305;28;20186;-74
2024/01/26 06:38:31;;;;;;;6.33;3.70;;;5.40;97.30;;;;;;5006598;28;20182;-75
2024/01/26 06:40:59;;;;;;;1.50;1.40;;;5.40;97.30;;;;;;5005542;28;20224;-76
2024/01/26 06:43:24;;;;;;;1.10;1.00;;;5.40;97.30;;;;;;5020229;28;20235;-76
2024/01/26 06:45:50;;;;;;;6.60;1.93;;;5.40;97.30;;;;;;5029184;28;20415;-77
2024/01/26 06:48:15;;;;;;;2.40;2.30;;;5.40;97.30;;;;;;5021472;28;20208;-77
2024/01/26 06:50:41;;;;;;;0.80;0.70;;;5.40;97.30;;;;;;5021195;28;20309;-77
2024/01/26 06:53:07;;;;;;;1.10;1.00;;;5.50;97.30;;;;;;5022850;28;20199;-76
2024/01/26 06:55:32;;;;;;;1.27;1.17;;;5.50;97.30;;;;;;5021999;28;20181;-76
2024/01/26 06:57:58;;;;;;;2.40;1.60;;;5.50;97.30;;;;;;5023597;28;20411;-76
2024/01/26 07:00:23;;;;;;;2.57;2.37;;;5.50;97.30;;;;;;5022053;28;20236;-75
2024/01/26 07:02:49;;;;;;;1.37;1.27;;;5.50;97.30;;;;;;5013803;28;20225;-76
2024/01/26 07:05:14;;;;;;;1.20;1.10;;;5.40;97.30;;;;;;4996077;28;20558;-74
2024/01/26 07:07:40;;;;;;;1.47;1.37;;;5.50;97.30;;;;;;5001279;28;20567;-74
2024/01/26 07:10:06;;;;;;;3.63;3.43;;;5.50;97.30;;;;;;5010366;28;20271;-74
2024/01/26 07:12:32;;;;;;;1.87;1.77;;;5.50;97.30;;;;;;5015219;28;20187;-75
2024/01/26 07:14:57;;;;;;;6.00;3.57;;;5.50;97.30;;;;;;5002834;28;20420;-75
2024/01/26 07:17:23;;;;;;;2.33;1.40;;;5.50;97.30;;;;;;5001029;28;20193;-74
2024/01/26 07:19:49;;;;;;;1.27;1.00;;;5.50;97.30;;;;;;5010133;28;20534;-75
2024/01/26 07:22:14;;;;;;;1.97;1.87;;;5.50;97.30;;;;;;5015642;28;20234;-74
2024/01/26 07:24:40;;;;;;;3.43;1.23;;;5.60;97.30;;;;;;5013008;28;20192;-75
2024/01/26 07:27:05;;;;;;;4.63;2.10;;;5.60;97.30;;;;;;5009766;28;20200;-75
2024/01/26 07:29:32;;;;;;;1.70;1.60;;;5.60;97.30;;;;;;5006971;28;20231;-74
2024/01/26 07:31:58;;;;;;;0.87;0.77;;;5.60;97.30;;;;;;5005548;28;20213;-74
2024/01/26 07:34:23;;;;;;;1.63;1.53;;;5.70;97.30;;;;;;5003860;28;20928;-75
2024/01/26 07:36:49;;;;;;;3.33;3.13;;;5.70;97.30;;;;;;5007019;28;20193;-75
2024/01/26 07:39:15;;;;;;;2.53;1.87;;;5.80;97.30;;;;;;5000825;28;20202;-74
2024/01/26 07:41:40;;;;;;;0.80;0.70;;;5.90;97.30;;;;;;5015240;28;20254;-78
2024/01/26 07:44:06;;;;;;;1.27;1.17;;;5.90;97.30;;;;;;5003150;28;20844;-74
2024/01/26 07:46:32;;;;;;;1.77;1.10;;;6.00;97.30;;;;;;5013444;28;20192;-75
2024/01/26 07:49:00;;;;;;;0.97;0.87;;;6.10;97.30;;;;;;4999965;28;20202;-75
2024/01/26 07:51:26;;;;;;;3.73;1.80;;;6.10;97.30;;;;;;5006097;28;20487;-75
2024/01/26 07:53:52;;;;;;;1.87;1.77;;;6.20;97.30;;;;;;5001862;28;20425;-75
2024/01/26 07:56:17;;;;;;;2.33;2.13;;;6.20;97.30;;;;;;4999273;28;20420;-75
2024/01/26 07:58:43;;;;;;;2.33;1.23;;;6.20;97.30;;;;;;4997491;28;20200;-75
2024/01/26 08:01:11;;;;;;;1.17;1.10;;;6.20;97.30;;;;;;4996156;28;20710;-76
2024/01/26 08:03:38;;;;;;;1.73;1.47;;;6.30;97.30;;;;;;4999691;28;20199;-75
2024/01/26 08:06:04;;;;;;;1.23;0.87;;;6.30;97.30;;;;;;5012323;28;20474;-76
2024/01/26 08:08:29;;;;;;;1.20;1.10;;;6.30;97.30;;;;;;5007358;28;20464;-74
2024/01/26 08:10:57;;;;;;;1.00;0.90;;;6.30;97.30;;;;;;5000831;28;20202;-75
2024/01/26 08:13:22;;;;;;;1.93;1.30;;;6.40;97.30;;;;;;5008765;28;20182;-75
2024/01/26 08:15:48;;;;;;;1.00;0.90;;;6.40;97.30;;;;;;5002910;28;20424;-75
2024/01/26 08:18:14;;;;;;;5.33;2.03;;;6.50;97.30;;;;;;4999339;28;20186;-75
2024/01/26 08:20:40;;;;;;;5.13;2.13;;;6.50;97.30;;;;;;4998969;28;20214;-75
2024/01/26 08:23:06;;;;;;;2.57;1.93;;;6.60;97.30;;;;;;5000117;28;20983;-75
2024/01/26 08:25:33;;;;;;;0.90;0.80;;;6.60;97.30;;;;;;5008877;28;20491;-75
2024/01/26 08:27:59;;;;;;;1.03;0.93;;;6.70;97.30;;;;;;5003758;28;20654;-75
2024/01/26 08:30:24;;;;;;;1.40;1.30;;;6.70;97.30;;;;;;5004350;28;22210;-77
2024/01/26 08:32:50;;;;;;;1.00;0.90;;;6.80;97.30;;;;;;5005103;28;20198;-77
2024/01/26 08:35:16;;;;;;;1.17;1.07;;;6.80;97.30;;;;;;5010784;28;20264;-75
2024/01/26 08:37:42;;;;;;;1.10;1.00;;;6.90;97.30;;;;;;5009876;28;20494;-75
2024/01/26 08:40:09;;;;;;;10.13;1.40;;;6.90;97.30;;;;;;4997665;28;20842;-75
2024/01/26 08:42:35;;;;;;;1.20;1.17;;;7.00;97.30;;;;;;5009986;28;20184;-74
2024/01/26 08:45:01;;;;;;;1.20;1.10;;;7.10;97.30;;;;;;4999505;28;20845;-79
2024/01/26 08:47:26;;;;;;;1.83;1.73;;;7.20;97.30;;;;;;5007872;28;20455;-75
2024/01/26 08:49:52;;;;;;;1.20;1.10;;;7.20;97.30;;;;;;4995446;28;20464;-74
2024/01/26 08:52:17;;;;;;;0.97;0.87;;;7.30;97.30;;;;;;4999254;28;20197;-75
2024/01/26 08:54:43;;;;;;;1.00;0.90;;;7.30;97.30;;;;;;4998046;28;20177;-73
2024/01/26 08:57:09;;;;;;;1.53;1.43;;;7.40;97.30;;;;;;5002546;28;20184;-74
2024/01/26 08:59:34;;;;;;;3.17;2.33;;;7.40;97.30;;;;;;5004666;28;20209;-76
2024/01/26 09:02:01;;;;;;;1.20;1.10;;;7.50;97.30;;;;;;5023274;28;20228;-74
2024/01/26 09:04:27;;;;;;;0.90;0.80;;;7.50;97.30;;;;;;5019761;28;20178;-74
2024/01/26 09:06:53;;;;;;;5.93;2.27;;;7.60;97.30;;;;;;5024625;28;20431;-74
2024/01/26 09:09:19;;;;;;;2.00;1.77;;;7.70;97.30;;;;;;5025524;28;20291;-72
2024/01/26 09:11:44;;;;;;;1.00;0.93;;;7.70;97.30;;;;;;5011544;28;20529;-80
2024/01/26 09:14:10;;;;;;;1.00;0.90;;;7.80;97.30;;;;;;5028096;28;20176;-74
2024/01/26 09:16:35;;;;;;;1.13;1.07;;;7.90;97.30;;;;;;5029053;28;20181;-77
2024/01/26 09:19:01;;;;;;;1.50;1.40;;;7.90;97.30;;;;;;5029440;28;20220;-74
2024/01/26 09:21:26;;;;;;;1.20;1.10;;;8.00;97.30;;;;;;5020071;28;20216;-74
2024/01/26 09:23:52;;;;;;;1.00;0.90;;;8.00;97.30;;;;;;5016162;28;20212;-77
2024/01/26 09:26:17;;;;;;;3.50;1.43;;;8.10;97.30;;;;;;5024259;28;20180;-75
2024/01/26 09:28:43;;;;;;;1.00;0.90;;;8.20;97.30;;;;;;4999583;28;20219;-75
2024/01/26 09:31:08;;;;;;;1.23;1.13;;;8.20;97.30;;;;;;5004319;28;20673;-75
2024/01/26 09:33:34;;;;;;;1.20;1.10;;;8.20;97.30;;;;;;5007312;28;20255;-75
2024/01/26 09:36:00;;;;;;;0.90;0.80;;;8.30;97.30;;;;;;4998076;28;20196;-74
2024/01/26 09:38:25;;;;;;;1.73;1.63;;;8.30;97.30;;;;;;4999134;28;20183;-73
2024/01/26 09:40:51;;;;;;;1.40;1.30;;;8.30;97.30;;;;;;5006832;28;20214;-73
2024/01/26 09:43:17;;;;;;;1.67;1.43;;;8.30;97.30;;;;;;4996663;28;20189;-74
2024/01/26 09:45:52;;;;;;;0.90;0.80;;;8.40;97.30;;;;;;5000921;28;20687;-74
2024/01/26 09:48:19;;;;;;;1.00;1.00;;;8.40;97.30;;;;;;4996569;28;20270;-74
2024/01/26 09:50:50;;;;;;;4.00;1.93;;;8.40;97.30;;;;;;5008795;28;20446;-72
2024/01/26 09:53:17;;;;;;;1.17;1.07;;;8.50;97.30;;;;;;5007129;28;20416;-73
2024/01/26 09:55:45;;;;;;;7.33;1.50;;;8.50;97.30;;;;;;5000869;28;20807;-75
2024/01/26 09:58:11;;;;;;;1.30;1.20;;;8.60;97.30;;;;;;5002705;28;20419;-74
2024/01/26 10:00:36;;;;;;;1.00;0.90;;;8.70;97.30;;;;;;5009006;28;20447;-74
2024/01/26 10:03:02;;;;;;;0.93;0.83;;;8.80;97.30;;;;;;5015345;28;20447;-75
2024/01/26 10:05:28;;;;;;;0.90;0.80;;;8.90;97.30;;;;;;5009181;28;20200;-75
2024/01/26 10:07:53;;;;;;;0.90;0.80;;;9.00;97.30;;;;;;5015644;28;20275;-74
2024/01/26 10:10:19;;;;;;;4.27;2.40;;;9.10;97.30;;;;;;5024787;28;20474;-73
2024/01/26 10:12:45;;;;;;;1.23;1.20;;;9.10;97.30;;;;;;5003834;28;20239;-75
2024/01/26 10:15:11;;;;;;;1.27;1.17;;;9.10;97.30;;;;;;5006008;28;21093;-73
2024/01/26 10:17:38;;;;;;;0.80;0.70;;;9.10;97.30;;;;;;5017038;28;20556;-73
2024/01/26 10:20:15;;;;;;;0.73;0.70;;;9.20;97.30;;;;;;5009219;28;20459;-75
2024/01/26 10:22:43;;;;;;;1.00;1.00;;;9.20;97.30;;;;;;5002807;28;20486;-74
2024/01/26 10:25:09;;;;;;;1.00;0.90;;;9.20;97.30;;;;;;5013613;28;20424;-74
2024/01/26 10:27:35;;;;;;;6.30;1.17;;;9.20;97.30;;;;;;5024330;28;20462;-73
2024/01/26 10:30:04;;;;;;;1.00;0.93;;;9.30;97.30;;;;;;5019859;28;20507;-74
2024/01/26 10:32:31;;;;;;;1.20;1.10;;;9.30;97.30;;;;;;5005917;28;20177;-73
2024/01/26 10:34:58;;;;;;;1.33;1.23;;;9.30;97.30;;;;;;5016903;28;20423;-75
2024/01/26 10:37:30;;;;;;;1.67;1.57;;;9.40;97.30;;;;;;5016296;28;20507;-73
2024/01/26 10:39:57;;;;;;;1.30;1.20;;;9.40;97.30;;;;;;5005500;28;20419;-74
2024/01/26 10:42:23;;;;;;;2.97;0.80;;;9.50;97.30;;;;;;5003595;28;20543;-75
2024/01/26 10:44:53;;;;;;;1.00;0.90;;;9.60;97.30;;;;;;5015776;28;20503;-74
2024/01/26 10:47:19;;;;;;;0.90;0.90;;;9.60;97.30;;;;;;5023986;28;20848;-74
2024/01/26 10:49:49;;;;;;;1.10;1.00;;;9.70;97.30;;;;;;5003139;28;20469;-74
2024/01/26 10:52:19;;;;;;;1.93;1.83;;;9.80;97.30;;;;;;4991529;28;20459;-74
2024/01/26 10:54:47;;;;;;;1.10;1.00;;;9.90;97.30;;;;;;5010100;28;20847;-74
2024/01/26 10:57:16;;;;;;;1.10;1.00;;;10.00;97.30;;;;;;5004933;28;20480;-72
2024/01/26 10:59:43;;;;;;;3.13;1.77;;;10.00;97.30;;;;;;4999446;28;20474;-73
2024/01/26 11:02:15;;;;;;;1.43;1.03;;;10.10;97.30;;;;;;4996857;28;20483;-74
2024/01/26 11:04:43;;;;;;;1.00;0.90;;;10.30;97.30;;;;;;5008673;28;20820;-74
2024/01/26 11:07:09;;;;;;;0.97;0.87;;;10.40;97.30;;;;;;4991186;28;20432;-72
2024/01/26 11:09:38;;;;;;;1.03;0.93;;;10.50;97.30;;;;;;5009284;28;20477;-74
2024/01/26 11:12:08;;;;;;;1.20;1.10;;;10.60;97.30;;;;;;5012975;28;20723;-72
2024/01/26 11:14:34;;;;;;;1.53;1.03;;;10.60;97.30;;;;;;5018193;28;20423;-76
2024/01/26 11:17:10;;;;;;;2.30;0.80;;;10.60;97.30;;;;;;5009994;28;20443;-72
2024/01/26 11:19:35;;;;;;;1.33;1.00;;;10.60;97.30;;;;;;5017452;28;20193;-73
2024/01/26 11:22:05;;;;;;;0.97;0.87;;;10.70;97.30;;;;;;5020882;28;20450;-73
2024/01/26 11:24:32;;;;;;;2.87;1.63;;;10.70;97.30;;;;;;5020634;28;20237;-73
2024/01/26 11:27:00;;;;;;;1.20;1.10;;;10.70;97.30;;;;;;5017792;28;20416;-74
2024/01/26 11:29:35;;;;;;;1.47;1.37;;;10.70;97.30;;;;;;5019385;28;20555;-74
2024/01/26 11:32:14;;;;;;;1.00;0.90;;;10.70;97.30;;;;;;5023147;28;20969;-72
2024/01/26 11:34:40;;;;;;;1.00;0.90;;;10.80;97.30;;;;;;5014072;28;20950;-76
2024/01/26 11:37:13;;;;;;;1.20;1.00;;;10.80;97.30;;;;;;5024155;28;20503;-73
2024/01/26 11:39:39;;;;;;;0.90;0.80;;;10.80;97.30;;;;;;5026772;28;20188;-73
2024/01/26 11:42:10;;;;;;;0.90;0.80;;;10.80;97.30;;;;;;5023299;28;20431;-73
2024/01/26 11:44:40;;;;;;;1.30;1.17;;;10.70;97.30;;;;;;5019134;28;20697;-77
2024/01/26 11:47:09;;;;;;;1.00;0.90;;;10.60;97.30;;;;;;5023532;28;20778;-72
2024/01/26 11:49:37;;;;;;;1.30;1.20;;;10.50;97.30;;;;;;4995007;28;20494;-73
2024/01/26 11:52:04;;;;;;;0.90;0.80;;;10.30;97.30;;;;;;5012962;28;20450;-75
2024/01/26 11:54:31;;;;;;;1.80;1.00;;;10.20;97.30;;;;;;5020291;28;20416;-76
2024/01/26 11:56:56;;;;;;;1.10;1.00;;;10.00;97.30;;;;;;5012293;28;20808;-76
2024/01/26 11:59:22;;;;;;;1.20;1.10;;;9.90;97.30;;;;;;5043257;23;20494;-90
2024/01/26 12:01:47;;;;;;;1.20;1.10;;;9.80;97.30;;;;;;5051616;28;20188;-91
2024/01/26 12:04:13;;;;;;;1.10;1.00;;;9.70;97.30;;;;;;5035890;28;20177;-87
2024/01/26 12:06:39;;;;;;;0.87;0.77;;;9.60;97.30;;;;;;5043845;28;20195;-88
2024/01/26 12:09:07;;;;;;;1.20;1.10;;;9.60;97.30;;;;;;5047974;28;20192;-88
2024/01/26 12:11:32;;;;;;;1.00;0.90;;;9.50;97.30;;;;;;5021862;28;20417;-87
2024/01/26 12:13:58;;;;;;;2.60;1.27;;;9.50;97.30;;;;;;5025426;28;20565;-89
2024/01/26 12:16:24;;;;;;;1.10;1.00;;;9.40;97.30;;;;;;5026179;28;20178;-89
2024/01/26 12:18:50;;;;;;;1.20;1.03;;;9.40;97.30;;;;;;5032601;28;20212;-88
2024/01/26 12:21:15;;;;;;;1.20;1.10;;;9.40;97.30;;;;;;5027680;28;20949;-88
2024/01/26 12:23:41;;;;;;;0.90;0.80;;;9.40;97.30;;;;;;5022872;28;20177;-90
2024/01/26 12:26:11;;;;;;;1.20;1.10;;;9.30;97.30;;;;;;5024379;28;20207;-89
2024/01/26 12:28:37;;;;;;;1.17;1.10;;;9.40;97.30;;;;;;5022207;28;20641;-88
2024/01/26 12:31:03;;;;;;;2.10;1.10;;;9.30;97.30;;;;;;5017771;28;20443;-88
2024/01/26 12:33:29;;;;;;;1.10;1.00;;;9.30;97.30;;;;;;5017926;28;20177;-87
2024/01/26 12:35:56;;;;;;;0.97;0.87;;;9.30;97.30;;;;;;5015168;28;20800;-88
2024/01/26 12:38:21;;;;;;;1.13;1.03;;;9.30;97.30;;;;;;5024356;28;20168;-88
2024/01/26 12:40:47;;;;;;;1.00;0.90;;;9.30;97.30;;;;;;5013665;28;20432;-89
2024/01/26 12:43:13;;;;;;;1.20;1.10;;;9.30;97.30;;;;;;5012828;28;20165;-88
2024/01/26 12:45:38;;;;;;;1.03;0.93;;;9.30;97.30;;;;;;5020888;28;20232;-89
2024/01/26 12:48:04;;;;;;;0.90;0.80;;;9.30;97.30;;;;;;5017529;28;20169;-87
2024/01/26 12:50:30;;;;;;;1.00;1.00;;;9.30;97.30;;;;;;5012063;28;20209;-87
2024/01/26 12:52:55;;;;;;;2.90;1.27;;;9.30;97.30;;;;;;5016542;28;20433;-88
2024/01/26 12:55:21;;;;;;;1.40;1.30;;;9.30;97.30;;;;;;5032718;28;20434;-87
2024/01/26 12:57:47;;;;;;;1.13;1.03;;;9.20;97.30;;;;;;5021615;28;20177;-87
2024/01/26 13:00:13;;;;;;;1.73;1.63;;;9.30;97.30;;;;;;5019012;28;21004;-89
2024/01/26 13:02:38;;;;;;;1.47;1.37;;;9.30;97.30;;;;;;5016569;28;20185;-89
2024/01/26 13:05:05;;;;;;;0.90;0.80;;;9.30;97.30;;;;;;5026037;28;20517;-88
2024/01/26 13:07:32;;;;;;;1.43;1.33;;;9.30;97.30;;;;;;5024737;28;20212;-86
2024/01/26 13:09:58;;;;;;;1.63;1.53;;;9.30;97.30;;;;;;5013718;28;20490;-88
2024/01/26 13:12:23;;;;;;;1.20;1.10;;;9.30;97.30;;;;;;5022302;28;20909;-88
2024/01/26 13:14:49;;;;;;;0.90;0.80;;;9.40;97.30;;;;;;5015197;28;20185;-88
2024/01/26 13:17:14;;;;;;;1.40;1.30;;;9.40;97.30;;;;;;5019773;28;20177;-88
2024/01/26 13:19:40;;;;;;;1.10;1.00;;;9.40;97.30;;;;;;5016163;28;20505;-87
2024/01/26 13:22:05;;;;;;;1.07;1.00;;;9.40;97.30;;;;;;5014309;28;20177;-89
2024/01/26 13:24:31;;;;;;;1.67;1.57;;;9.40;97.30;;;;;;5022351;28;20200;-87
2024/01/26 13:26:57;;;;;;;1.00;0.90;;;9.50;97.30;;;;;;5025298;28;20209;-87
2024/01/26 13:29:23;;;;;;;1.77;1.67;;;9.50;97.30;;;;;;5032369;28;20208;-87
2024/01/26 13:31:49;;;;;;;0.97;0.87;;;9.50;97.30;;;;;;5022290;28;20423;-89
2024/01/26 13:34:15;;;;;;;1.00;0.90;;;9.60;97.30;;;;;;5015995;28;20607;-88
2024/01/26 13:36:42;;;;;;;1.37;1.27;;;9.60;97.30;;;;;;5027682;28;20443;-88
2024/01/26 13:39:08;;;;;;;1.10;1.00;;;9.60;97.30;;;;;;5032127;28;20502;-89
2024/01/26 13:41:37;;;;;;;0.90;0.80;;;9.70;97.30;;;;;;5018432;28;20420;-87
2024/01/26 13:44:02;;;;;;;1.70;1.60;;;9.70;97.30;;;;;;5022506;28;20447;-87
2024/01/26 13:46:28;;;;;;;1.50;1.40;;;9.70;97.30;;;;;;5021035;28;20435;-87
2024/01/26 13:48:53;;;;;;;1.10;1.00;;;9.70;97.30;;;;;;5022481;28;20283;-88
2024/01/26 13:51:19;;;;;;;1.00;0.90;;;9.80;97.30;;;;;;5019859;28;20197;-88
2024/01/26 13:53:45;;;;;;;1.33;0.80;;;9.80;97.30;;;;;;5021825;28;20271;-88
2024/01/26 13:56:15;;;;;;;0.97;0.87;;;9.90;97.30;;;;;;5021743;28;20254;-87
2024/01/26 13:58:41;;;;;;;0.80;0.70;;;10.00;97.30;;;;;;5022512;28;20231;-87
2024/01/26 14:01:07;;;;;;;2.30;2.10;;;10.00;97.30;;;;;;5025150;28;20508;-88
2024/01/26 14:03:33;;;;;;;0.80;0.70;;;10.20;97.30;;;;;;5010686;28;20186;-89
2024/01/26 14:05:59;;;;;;;1.07;0.97;;;10.30;97.30;;;;;;5009612;28;20421;-88
2024/01/26 14:08:24;;;;;;;1.10;0.80;;;10.40;97.30;;;;;;5004599;28;21053;-90
2024/01/26 14:10:50;;;;;;;0.90;0.80;;;10.50;97.30;;;;;;5007837;28;20353;-90
2024/01/26 14:13:15;;;;;;;1.10;1.00;;;10.50;97.30;;;;;;5005507;28;20188;-91
2024/01/26 14:15:41;;;;;;;1.10;1.03;;;10.60;97.30;;;;;;5008606;28;20193;-90
2024/01/26 14:18:06;;;;;;;1.27;1.27;;;10.60;97.30;;;;;;5008234;28;20265;-91
2024/01/26 14:20:35;;;;;;;0.97;0.87;;;10.60;97.30;;;;;;5001977;28;20204;-90
2024/01/26 14:23:00;;;;;;;0.90;0.80;;;10.70;97.30;;;;;;5008322;28;20185;-92
2024/01/26 14:25:26;;;;;;;0.80;0.70;;;10.70;97.30;;;;;;5004417;28;20413;-90
2024/01/26 14:27:52;;;;;;;1.30;1.20;;;10.70;97.30;;;;;;5004757;28;20174;-91
2024/01/26 14:30:19;;;;;;;2.97;1.30;;;10.70;97.30;;;;;;5005392;28;20470;-90
2024/01/26 14:32:45;;;;;;;0.90;0.80;;;10.70;97.30;;;;;;5005189;28;20601;-88
2024/01/26 14:35:12;;;;;;;1.10;1.00;;;10.80;97.30;;;;;;5011080;28;20416;-89
2024/01/26 14:37:40;;;;;;;0.80;0.70;;;10.70;97.30;;;;;;5017471;28;20424;-89
2024/01/26 14:40:11;;;;;;;0.90;0.80;;;10.70;97.30;;;;;;5020310;28;20451;-89
2024/01/26 14:42:37;;;;;;;1.10;1.00;;;10.70;97.30;;;;;;5020754;28;20451;-88
2024/01/26 14:45:03;;;;;;;1.00;0.80;;;10.70;97.30;;;;;;5020283;28;20460;-89
2024/01/26 14:47:28;;;;;;;0.90;0.80;;;10.70;97.30;;;;;;5020453;28;20223;-88
2024/01/26 14:49:56;;;;;;;0.80;0.70;;;10.70;97.30;;;;;;5016752;28;20487;-88
2024/01/26 14:52:21;;;;;;;1.37;1.00;;;10.60;97.30;;;;;;5006667;28;20554;-89
2024/01/26 14:54:46;;;;;;;0.93;0.83;;;10.60;97.30;;;;;;5011353;28;20419;-88
2024/01/26 14:57:12;;;;;;;0.80;0.70;;;10.60;97.30;;;;;;5005823;28;20193;-88
2024/01/26 14:59:38;;;;;;;1.13;1.10;;;10.60;97.30;;;;;;5014978;28;20676;-88
2024/01/26 15:02:03;;;;;;;0.90;0.80;;;10.60;97.30;;;;;;5018573;28;20192;-89
2024/01/26 15:04:29;;;;;;;0.80;0.70;;;10.60;97.30;;;;;;5021451;28;20517;-89
2024/01/26 15:06:54;;;;;;;0.80;0.70;;;10.50;97.30;;;;;;5014886;28;20184;-90
2024/01/26 15:09:20;;;;;;;0.90;0.80;;;9.90;97.30;;;;;;5021418;28;20231;-90
2024/01/26 15:11:46;;;;;;;0.90;0.80;;;9.50;97.30;;;;;;5020672;28;20231;-89
2024/01/26 15:14:11;;;;;;;0.90;0.80;;;9.20;97.30;;;;;;5035997;28;20177;-89
2024/01/26 15:16:40;;;;;;;1.47;1.43;;;9.00;97.30;;;;;;5028016;28;20238;-90
2024/01/26 15:19:08;;;;;;;1.60;1.50;;;8.90;97.30;;;;;;5017945;28;20185;-90
2024/01/26 15:21:41;;;;;;;0.80;0.70;;;8.80;97.30;;;;;;5016124;28;20431;-89
2024/01/26 15:24:10;;;;;;;0.90;0.80;;;8.70;97.30;;;;;;5022238;28;20639;-92
2024/01/26 15:27:10;;;;;;;0.90;0.80;;;8.70;97.30;;;;;;5025123;28;20419;-89
2024/01/26 15:29:39;;;;;;;1.20;1.10;;;8.70;97.30;;;;;;5020368;28;20522;-89
2024/01/26 15:32:29;;;;;;;0.90;0.80;;;8.70;97.30;;;;;;5028242;28;20420;-88
2024/01/26 15:35:10;;;;;;;1.30;1.20;;;8.70;97.30;;;;;;5009279;28;20648;-89
2024/01/26 15:37:40;;;;;;;0.90;0.80;;;8.70;97.30;;;;;;5017072;28;20427;-88
2024/01/26 15:40:18;;;;;;;0.93;0.83;;;8.60;97.30;;;;;;5016090;28;20498;-88
2024/01/26 15:42:50;;;;;;;0.90;0.80;;;8.60;97.30;;;;;;5019991;28;20423;-88
2024/01/26 15:45:30;;;;;;;0.60;0.60;;;8.60;97.30;;;;;;5014973;28;20436;-88
2024/01/26 15:47:59;;;;;;;1.10;1.00;;;8.60;97.30;;;;;;5015552;28;20918;-88
2024/01/26 15:50:38;;;;;;;1.37;1.27;;;8.60;97.30;;;;;;5014783;28;20498;-89
2024/01/26 15:53:30;;;;;;;0.90;0.80;;;8.60;97.30;;;;;;5034715;28;20412;-88
2024/01/26 15:55:58;;;;;;;0.90;0.80;;;8.50;97.30;;;;;;5004870;28;20428;-88
2024/01/26 15:58:26;;;;;;;0.90;0.80;;;8.50;97.30;;;;;;5017849;28;20415;-87
2024/01/26 16:01:09;;;;;;;0.90;0.80;;;8.50;97.30;;;;;;5012061;28;20464;-87
2024/01/26 16:03:40;;;;;;;0.87;0.77;;;8.40;97.30;;;;;;5014446;28;20428;-88
2024/01/26 16:06:09;;;;;;;1.10;1.00;;;8.40;97.30;;;;;;5011732;28;20419;-88
2024/01/26 16:09:00;;;;;;;0.90;0.80;;;8.40;97.30;;;;;;5017542;28;20437;-87
2024/01/26 16:11:32;;;;;;;0.90;0.80;;;8.40;97.30;;;;;;5018193;28;20430;-88
2024/01/26 16:14:01;;;;;;;0.80;0.70;;;8.30;97.30;;;;;;5015237;28;20420;-87
2024/01/26 16:16:29;;;;;;;1.00;0.90;;;8.20;97.30;;;;;;5015282;28;20478;-88
2024/01/26 16:19:19;;;;;;;0.90;0.80;;;8.20;97.30;;;;;;5031036;28;20474;-87
2024/01/26 16:21:48;;;;;;;0.80;0.70;;;8.20;97.30;;;;;;5017233;28;20451;-88
2024/01/26 16:24:19;;;;;;;1.23;1.13;;;8.20;97.30;;;;;;5016894;28;20423;-87
2024/01/26 16:27:01;;;;;;;;;;;;;;;;;;;;;
2024/01/26 16:29:29;;;;;;;1.40;1.30;;;8.20;97.30;;;;;;5017126;28;20547;-90
2024/01/26 16:32:01;;;;;;;2.20;1.23;;;8.10;97.30;;;;;;5030841;28;20430;-86
2024/01/26 16:34:29;;;;;;;1.00;0.90;;;8.10;97.30;;;;;;5021961;28;20416;-88
2024/01/26 16:36:58;;;;;;;1.40;1.30;;;8.00;97.30;;;;;;5026845;28;20409;-87
2024/01/26 16:39:38;;;;;;;1.10;1.00;;;8.00;97.30;;;;;;5017266;28;20440;-87
2024/01/26 16:42:09;;;;;;;0.90;0.80;;;7.90;97.30;;;;;;5028429;28;20412;-88
2024/01/26 16:44:38;;;;;;;0.97;0.87;;;7.80;97.30;;;;;;5016151;28;21120;-88
2024/01/26 16:47:21;;;;;;;;;;;;;;;;;;;;;
2024/01/26 16:49:53;;;;;;;0.80;0.70;;;7.70;97.30;;;;;;5015172;28;20465;-87
2024/01/26 16:52:28;;;;;;;2.43;0.90;;;7.60;97.30;;;;;;5011780;28;21233;-87
2024/01/26 16:54:59;;;;;;;1.00;0.90;;;7.60;97.30;;;;;;5001255;28;20946;-85
2024/01/26 16:57:30;;;;;;;1.00;0.90;;;7.60;97.30;;;;;;5002903;28;20409;-86
2024/01/26 16:59:59;;;;;;;1.67;1.53;;;7.50;97.30;;;;;;5012168;28;20534;-86
2024/01/26 17:02:38;;;;;;;2.30;0.90;;;7.50;97.30;;;;;;5026017;28;20510;-86
2024/01/26 17:05:10;;;;;;;1.00;0.90;;;7.50;97.30;;;;;;5031298;28;20483;-86
2024/01/26 17:07:39;;;;;;;1.00;0.90;;;7.60;97.30;;;;;;5010207;28;20411;-87
2024/01/26 17:10:10;;;;;;;3.37;1.00;;;7.50;97.30;;;;;;5018845;28;20554;-87
2024/01/26 17:12:39;;;;;;;1.00;0.90;;;7.50;97.30;;;;;;5015908;28;20718;-88
2024/01/26 17:15:10;;;;;;;1.77;1.67;;;7.60;97.30;;;;;;5009115;28;20479;-87
2024/01/26 17:17:39;;;;;;;1.20;1.10;;;7.70;97.30;;;;;;5015573;28;20608;-88
2024/01/26 17:20:18;;;;;;;1.00;0.90;;;7.70;97.30;;;;;;5008074;28;20463;-88
2024/01/26 17:22:50;;;;;;;1.27;1.27;;;7.70;97.30;;;;;;5015040;28;20474;-87
2024/01/26 17:25:49;;;;;;;1.00;0.90;;;7.80;97.30;;;;;;5022102;28;20444;-87
2024/01/26 17:28:20;;;;;;;1.00;0.90;;;7.80;97.30;;;;;;5021266;28;20452;-88
2024/01/26 17:30:49;;;;;;;0.90;0.80;;;7.80;97.30;;;;;;5018182;28;20503;-87
2024/01/26 17:33:58;;;;;;;1.73;1.37;;;7.80;97.30;;;;;;5008880;28;20424;-87
2024/01/26 17:36:50;;;;;;;0.90;0.80;;;7.80;97.30;;;;;;4926371;29;20432;-88
2024/01/26 17:39:30;;;;;;;0.90;0.80;;;7.80;97.30;;;;;;4907363;29;20419;-90
2024/01/26 17:42:10;;;;;;;0.90;0.80;;;7.80;97.30;;;;;;5002589;28;20420;-91
2024/01/26 17:44:39;;;;;;;1.30;1.20;;;7.80;97.30;;;;;;5006480;28;20442;-89
2024/01/26 17:47:24;;;;;;;0.90;0.80;;;7.80;97.30;;;;;;5011558;28;20416;-88
2024/01/26 17:49:50;;;;;;;1.10;1.00;;;7.90;97.30;;;;;;5006598;28;20523;-89
2024/01/26 17:52:18;;;;;;;3.37;1.33;;;7.90;97.30;;;;;;5003664;28;20428;-88
2024/01/26 17:54:50;;;;;;;0.90;0.80;;;7.80;97.30;;;;;;5003198;28;20177;-90
2024/01/26 17:57:20;;;;;;;0.90;0.80;;;7.70;97.30;;;;;;5012851;28;20435;-87
2024/01/26 18:02:15;;;;;;;0.80;0.70;;;7.60;97.30;;;;;;4977101;28;20493;-64
2024/01/26 18:04:40;;;;;;;0.90;0.80;;;7.50;97.30;;;;;;4987024;28;20433;-66